createdAt,value
2016-04-24T00:00:34.252Z,4.68
2016-04-24T00:01:34.223Z,4.66
2016-04-24T00:02:34.195Z,4.74
2016-04-24T00:03:34.150Z,4.73
2016-04-24T00:04:34.122Z,4.7
2016-04-24T00:05:34.094Z,4.77
2016-04-24T00:06:34.064Z,4.7
2016-04-24T00:07:34.053Z,4.68
2016-04-24T00:08:34.008Z,4.62
2016-04-24T00:09:33.979Z,4.73
2016-04-24T00:10:33.951Z,4.7
2016-04-24T00:11:33.922Z,4.62
2016-04-24T00:12:33.893Z,4.68
2016-04-24T00:13:33.866Z,4.67
2016-04-24T00:14:33.836Z,4.62
2016-04-24T00:15:33.808Z,4.68
2016-04-24T00:16:33.795Z,4.68
2016-04-24T00:17:33.751Z,4.75
2016-04-24T00:18:33.722Z,4.6
2016-04-24T00:19:33.693Z,4.7
2016-04-24T00:20:33.665Z,4.62
2016-04-24T00:21:33.637Z,4.62
2016-04-24T00:22:34.107Z,4.62
2016-04-24T00:23:33.580Z,4.7
2016-04-24T00:24:33.551Z,4.67
2016-04-24T00:25:33.522Z,4.71
2016-04-24T00:26:33.494Z,4.6
2016-04-24T00:27:33.465Z,4.56
2016-04-24T00:28:33.436Z,4.68
2016-04-24T00:29:33.409Z,4.68
2016-04-24T00:30:33.379Z,4.58
2016-04-24T00:31:33.351Z,4.58
2016-04-24T00:32:33.306Z,4.58
2016-04-24T00:33:33.278Z,4.58
2016-04-24T00:34:33.265Z,4.66
2016-04-24T00:35:33.236Z,4.63
2016-04-24T00:36:33.192Z,4.58
2016-04-24T00:37:33.773Z,4.56
2016-04-24T00:38:33.135Z,4.63
2016-04-24T00:39:33.123Z,4.55
2016-04-24T00:40:33.078Z,4.58
2016-04-24T00:41:32.908Z,4.62
2016-04-24T00:42:33.022Z,4.55
2016-04-24T00:43:32.993Z,4.56
2016-04-24T00:44:32.963Z,4.6
2016-04-24T00:45:32.936Z,4.6
2016-04-24T00:46:39.704Z,4.53
2016-04-24T00:47:32.879Z,4.62
2016-04-24T00:48:32.849Z,4.7
2016-04-24T00:49:32.821Z,4.71
2016-04-24T00:50:32.793Z,4.63
2016-04-24T00:51:32.764Z,4.68
2016-04-24T00:52:33.610Z,4.67
2016-04-24T00:53:32.707Z,4.62
2016-04-24T00:54:32.678Z,4.73
2016-04-24T00:55:32.651Z,4.67
2016-04-24T00:56:33.918Z,4.66
2016-04-24T00:57:32.592Z,4.68
2016-04-24T00:58:32.565Z,4.74
2016-04-24T00:59:32.536Z,4.75
2016-04-24T01:00:32.506Z,4.78
2016-04-24T01:01:32.510Z,4.71
2016-04-24T01:02:32.450Z,4.8
2016-04-24T01:03:32.406Z,4.84
2016-04-24T01:04:32.393Z,4.78
2016-04-24T01:05:32.364Z,4.8
2016-04-24T01:06:34.039Z,4.77
2016-04-24T01:07:32.166Z,4.77
2016-04-24T01:08:32.263Z,4.92
2016-04-24T01:09:32.250Z,4.9
2016-04-24T01:10:32.221Z,4.87
2016-04-24T01:11:32.178Z,4.93
2016-04-24T01:12:32.149Z,4.96
2016-04-24T01:13:32.119Z,4.94
2016-04-24T01:14:32.092Z,5
2016-04-24T01:15:32.079Z,5.08
2016-04-24T01:16:32.034Z,4.99
2016-04-24T01:17:32.022Z,5.05
2016-04-24T01:18:31.977Z,5.12
2016-04-24T01:19:31.949Z,5.04
2016-04-24T01:20:31.921Z,5.07
2016-04-24T01:21:31.891Z,5.04
2016-04-24T01:22:33.004Z,5.07
2016-04-24T01:23:31.836Z,5.15
2016-04-24T01:24:31.805Z,5.14
2016-04-24T01:25:31.776Z,5.14
2016-04-24T01:26:31.608Z,5.17
2016-04-24T01:27:31.719Z,5.14
2016-04-24T01:28:31.707Z,5.18
2016-04-24T01:29:31.678Z,5.1
2016-04-24T01:30:31.634Z,5.25
2016-04-24T01:31:31.497Z,5.25
2016-04-24T01:32:31.577Z,5.25
2016-04-24T01:33:31.548Z,5.25
2016-04-24T01:34:31.519Z,5.25
2016-04-24T01:35:31.491Z,5.29
2016-04-24T01:36:35.653Z,5.28
2016-04-24T01:37:31.856Z,5.28
2016-04-24T01:38:31.405Z,5.28
2016-04-24T01:39:31.393Z,5.15
2016-04-24T01:40:31.348Z,5.21
2016-04-24T01:41:31.319Z,5.26
2016-04-24T01:42:31.291Z,5.17
2016-04-24T01:43:31.278Z,5.26
2016-04-24T01:44:31.235Z,5.28
2016-04-24T01:45:31.221Z,5.28
2016-04-24T01:46:31.193Z,5.28
2016-04-24T01:47:31.165Z,5.28
2016-04-24T01:48:31.120Z,5.3
2016-04-24T01:49:31.123Z,5.26
2016-04-24T01:50:31.078Z,5.32
2016-04-24T01:51:31.050Z,5.29
2016-04-24T01:52:31.037Z,5.3
2016-04-24T01:53:30.993Z,5.23
2016-04-24T01:54:30.998Z,5.23
2016-04-24T01:55:31.010Z,5.25
2016-04-24T01:56:31.021Z,5.25
2016-04-24T01:57:31.033Z,5.17
2016-04-24T01:58:31.046Z,5.2
2016-04-24T01:59:31.035Z,5.12
2016-04-24T02:00:31.068Z,5.17
2016-04-24T02:01:31.007Z,5.1
2016-04-24T02:02:30.994Z,5.11
2016-04-24T02:03:30.980Z,5.14
2016-04-24T02:04:30.957Z,5.02
2016-04-24T02:05:30.935Z,5.08
2016-04-24T02:06:30.911Z,5
2016-04-24T02:07:30.731Z,5.02
2016-04-24T02:08:30.864Z,5
2016-04-24T02:09:30.838Z,5.05
2016-04-24T02:10:30.812Z,5.04
2016-04-24T02:11:30.786Z,5.02
2016-04-24T02:12:30.774Z,4.97
2016-04-24T02:13:30.732Z,4.97
2016-04-24T02:14:30.705Z,5.04
2016-04-24T02:15:30.677Z,5
2016-04-24T02:16:30.648Z,5.07
2016-04-24T02:17:30.620Z,5.05
2016-04-24T02:18:30.592Z,5.04
2016-04-24T02:19:30.563Z,5
2016-04-24T02:20:30.535Z,4.93
2016-04-24T02:21:30.507Z,5
2016-04-24T02:22:30.323Z,5
2016-04-24T02:23:30.451Z,5.1
2016-04-24T02:24:30.422Z,5
2016-04-24T02:25:30.394Z,5.11
2016-04-24T02:26:30.365Z,5.05
2016-04-24T02:27:30.337Z,5.08
2016-04-24T02:28:30.308Z,5.12
2016-04-24T02:29:30.279Z,5.07
2016-04-24T02:30:30.251Z,5.14
2016-04-24T02:31:30.223Z,5.1
2016-04-24T02:32:30.193Z,5.12
2016-04-24T02:33:30.165Z,5.08
2016-04-24T02:34:30.137Z,5.04
2016-04-24T02:35:30.108Z,5.08
2016-04-24T02:36:30.079Z,5.15
2016-04-24T02:37:30.442Z,5.08
2016-04-24T02:38:30.022Z,5.11
2016-04-24T02:39:29.995Z,5.05
2016-04-24T02:40:29.965Z,5.05
2016-04-24T02:41:29.968Z,5.1
2016-04-24T02:42:29.923Z,5.04
2016-04-24T02:43:29.895Z,5.04
2016-04-24T02:44:29.850Z,5.1
2016-04-24T02:45:29.822Z,5.07
2016-04-24T02:46:29.794Z,5.07
2016-04-24T02:47:29.781Z,4.99
2016-04-24T02:48:29.737Z,5.11
2016-04-24T02:49:29.708Z,5.12
2016-04-24T02:50:29.680Z,5.02
2016-04-24T02:51:29.651Z,5.02
2016-04-24T02:52:29.794Z,5.1
2016-04-24T02:53:30.297Z,5.11
2016-04-24T02:54:29.565Z,4.99
2016-04-24T02:55:29.538Z,5.02
2016-04-24T02:56:29.524Z,5
2016-04-24T02:57:29.479Z,4.96
2016-04-24T02:58:29.451Z,4.96
2016-04-24T02:59:29.454Z,4.9
2016-04-24T03:00:29.394Z,4.84
2016-04-24T03:01:29.365Z,4.93
2016-04-24T03:02:29.337Z,4.94
2016-04-24T03:03:29.308Z,4.93
2016-04-24T03:04:29.295Z,4.87
2016-04-24T03:05:29.267Z,4.87
2016-04-24T03:06:29.237Z,4.9
2016-04-24T03:07:29.398Z,4.89
2016-04-24T03:08:29.697Z,4.99
2016-04-24T03:09:29.153Z,4.9
2016-04-24T03:10:29.124Z,4.97
2016-04-24T03:11:29.095Z,4.9
2016-04-24T03:12:29.051Z,4.94
2016-04-24T03:13:29.023Z,4.87
2016-04-24T03:14:29.009Z,4.84
2016-04-24T03:15:28.966Z,4.89
2016-04-24T03:16:28.953Z,4.89
2016-04-24T03:17:28.925Z,4.96
2016-04-24T03:18:28.895Z,4.87
2016-04-24T03:19:28.867Z,4.93
2016-04-24T03:20:28.839Z,4.94
2016-04-24T03:21:28.794Z,4.94
2016-04-24T03:22:28.813Z,4.9
2016-04-24T03:23:28.768Z,4.93
2016-04-24T03:24:28.724Z,4.94
2016-04-24T03:25:28.696Z,4.94
2016-04-24T03:26:28.652Z,4.97
2016-04-24T03:27:28.638Z,4.82
2016-04-24T03:28:28.594Z,4.97
2016-04-24T03:29:28.581Z,4.87
2016-04-24T03:30:28.552Z,4.89
2016-04-24T03:31:28.509Z,4.96
2016-04-24T03:32:28.496Z,4.92
2016-04-24T03:33:28.467Z,4.93
2016-04-24T03:34:28.438Z,4.96
2016-04-24T03:35:28.410Z,4.94
2016-04-24T03:36:28.365Z,4.9
2016-04-24T03:37:28.196Z,4.9
2016-04-24T03:38:28.168Z,4.9
2016-04-24T03:39:28.295Z,4.78
2016-04-24T03:40:28.267Z,4.86
2016-04-24T03:41:28.239Z,4.89
2016-04-24T03:42:28.194Z,4.84
2016-04-24T03:43:28.166Z,4.89
2016-04-24T03:44:28.137Z,4.78
2016-04-24T03:45:28.109Z,4.82
2016-04-24T03:46:28.081Z,4.8
2016-04-24T03:47:28.067Z,4.82
2016-04-24T03:48:28.038Z,4.74
2016-04-24T03:49:27.995Z,4.68
2016-04-24T03:50:27.966Z,4.75
2016-04-24T03:51:27.953Z,4.67
2016-04-24T03:52:27.908Z,4.75
2016-04-24T03:53:27.880Z,4.71
2016-04-24T03:54:27.866Z,4.7
2016-04-24T03:55:27.824Z,4.75
2016-04-24T03:56:27.795Z,4.58
2016-04-24T03:57:27.766Z,4.67
2016-04-24T03:58:27.737Z,4.55
2016-04-24T03:59:27.725Z,4.58
2016-04-24T04:00:27.679Z,4.56
2016-04-24T04:01:27.652Z,4.53
2016-04-24T04:02:27.623Z,4.6
2016-04-24T04:03:27.595Z,4.52
2016-04-24T04:04:27.565Z,4.7
2016-04-24T04:05:27.554Z,4.63
2016-04-24T04:06:27.509Z,4.62
2016-04-24T04:07:27.481Z,4.63
2016-04-24T04:08:28.404Z,4.67
2016-04-24T04:09:27.423Z,4.73
2016-04-24T04:10:27.410Z,4.71
2016-04-24T04:11:27.367Z,4.68
2016-04-24T04:12:27.337Z,4.63
2016-04-24T04:13:27.309Z,4.68
2016-04-24T04:14:27.295Z,4.67
2016-04-24T04:15:27.253Z,4.67
2016-04-24T04:16:27.223Z,4.71
2016-04-24T04:17:27.195Z,4.66
2016-04-24T04:18:27.181Z,4.7
2016-04-24T04:19:27.138Z,4.59
2016-04-24T04:20:27.109Z,4.67
2016-04-24T04:21:27.081Z,4.56
2016-04-24T04:22:27.052Z,4.66
2016-04-24T04:23:27.945Z,4.56
2016-04-24T04:24:27.010Z,4.67
2016-04-24T04:25:26.966Z,4.6
2016-04-24T04:26:26.938Z,4.67
2016-04-24T04:27:26.910Z,4.75
2016-04-24T04:28:26.896Z,4.73
2016-04-24T04:29:26.868Z,4.74
2016-04-24T04:30:26.839Z,4.68
2016-04-24T04:31:26.795Z,4.75
2016-04-24T04:32:26.766Z,4.68
2016-04-24T04:33:26.738Z,4.73
2016-04-24T04:34:26.709Z,4.68
2016-04-24T04:35:26.696Z,4.82
2016-04-24T04:36:26.652Z,4.8
2016-04-24T04:37:26.623Z,4.86
2016-04-24T04:38:26.595Z,4.71
2016-04-24T04:39:26.567Z,4.68
2016-04-24T04:40:26.538Z,4.62
2016-04-24T04:41:26.509Z,4.62
2016-04-24T04:42:26.481Z,4.59
2016-04-24T04:43:26.452Z,4.55
2016-04-24T04:44:26.439Z,4.62
2016-04-24T04:45:26.395Z,4.58
2016-04-24T04:46:26.367Z,4.63
2016-04-24T04:47:26.338Z,4.59
2016-04-24T04:48:26.309Z,4.53
2016-04-24T04:49:26.281Z,4.62
2016-04-24T04:50:26.268Z,4.56
2016-04-24T04:51:26.224Z,4.5
2016-04-24T04:52:26.195Z,4.55
2016-04-24T04:53:26.182Z,4.5
2016-04-24T04:54:26.138Z,4.56
2016-04-24T04:55:26.125Z,4.55
2016-04-24T04:56:26.080Z,4.58
2016-04-24T04:57:26.052Z,4.66
2016-04-24T04:58:26.039Z,4.56
2016-04-24T04:59:25.996Z,4.7
2016-04-24T05:00:25.966Z,4.52
2016-04-24T05:01:25.938Z,4.7
2016-04-24T05:02:25.909Z,4.67
2016-04-24T05:03:25.882Z,4.74
2016-04-24T05:04:25.868Z,4.7
2016-04-24T05:05:25.824Z,4.74
2016-04-24T05:06:25.795Z,4.71
2016-04-24T05:07:25.767Z,4.71
2016-04-24T05:08:26.472Z,4.71
2016-04-24T05:09:25.710Z,4.74
2016-04-24T05:10:25.681Z,4.7
2016-04-24T05:11:25.668Z,4.78
2016-04-24T05:12:25.623Z,4.66
2016-04-24T05:13:25.596Z,4.71
2016-04-24T05:14:25.582Z,4.78
2016-04-24T05:15:25.539Z,4.82
2016-04-24T05:16:25.509Z,4.68
2016-04-24T05:17:25.481Z,4.66
2016-04-24T05:18:25.467Z,4.68
2016-04-24T05:19:25.440Z,4.71
2016-04-24T05:20:25.411Z,4.7
2016-04-24T05:21:25.382Z,4.86
2016-04-24T05:22:25.338Z,4.75
2016-04-24T05:23:25.326Z,4.87
2016-04-24T05:24:25.297Z,4.99
2016-04-24T05:25:25.268Z,4.96
2016-04-24T05:26:25.239Z,4.99
2016-04-24T05:27:25.210Z,5.02
2016-04-24T05:28:25.183Z,4.99
2016-04-24T05:29:25.155Z,5.2
2016-04-24T05:30:25.141Z,5.23
2016-04-24T05:31:25.112Z,5.21
2016-04-24T05:32:25.084Z,5.33
2016-04-24T05:33:25.040Z,5.3
2016-04-24T05:34:25.011Z,5.32
2016-04-24T05:35:24.982Z,5.28
2016-04-24T05:36:24.954Z,5.3
2016-04-24T05:37:24.940Z,5.29
2016-04-24T05:38:24.882Z,5.26
2016-04-24T05:39:24.899Z,5.3
2016-04-24T05:40:25.418Z,5.29
2016-04-24T05:41:24.826Z,5.36
2016-04-24T05:42:24.799Z,5.35
2016-04-24T05:43:24.770Z,5.29
2016-04-24T05:44:24.742Z,5.25
2016-04-24T05:45:24.712Z,5.28
2016-04-24T05:46:24.700Z,5.29
2016-04-24T05:47:24.655Z,5.14
2016-04-24T05:48:24.628Z,5.23
2016-04-24T05:49:24.598Z,5.14
2016-04-24T05:50:24.586Z,5.26
2016-04-24T05:51:24.556Z,5.15
2016-04-24T05:52:24.528Z,5.25
2016-04-24T05:53:25.031Z,5.26
2016-04-24T05:54:24.456Z,5.26
2016-04-24T05:55:24.442Z,5.21
2016-04-24T05:56:24.414Z,5.23
2016-04-24T05:57:24.385Z,5.26
2016-04-24T05:58:24.357Z,5.21
2016-04-24T05:59:24.328Z,5.3
2016-04-24T06:00:24.300Z,5.29
2016-04-24T06:01:24.271Z,5.26
2016-04-24T06:02:24.243Z,5.29
2016-04-24T06:03:24.214Z,5.21
2016-04-24T06:04:24.185Z,5.15
2016-04-24T06:05:24.157Z,5.18
2016-04-24T06:06:24.129Z,5.15
2016-04-24T06:07:24.115Z,5.21
2016-04-24T06:08:24.352Z,5.29
2016-04-24T06:09:24.059Z,5.29
2016-04-24T06:10:24.029Z,5.25
2016-04-24T06:11:24.001Z,5.2
2016-04-24T06:12:23.973Z,5.12
2016-04-24T06:13:23.945Z,5.12
2016-04-24T06:14:23.915Z,5.21
2016-04-24T06:15:23.887Z,5.25
2016-04-24T06:16:23.858Z,5.26
2016-04-24T06:17:23.845Z,5.3
2016-04-24T06:18:23.801Z,5.26
2016-04-24T06:19:23.773Z,5.35
2016-04-24T06:20:23.759Z,5.26
2016-04-24T06:21:23.731Z,5.39
2016-04-24T06:22:23.552Z,5.48
2016-04-24T06:23:23.898Z,5.54
2016-04-24T06:24:23.495Z,5.47
2016-04-24T06:25:23.623Z,5.61
2016-04-24T06:26:23.594Z,5.54
2016-04-24T06:27:23.566Z,5.66
2016-04-24T06:28:23.537Z,5.73
2016-04-24T06:29:23.525Z,5.66
2016-04-24T06:30:23.480Z,5.71
2016-04-24T06:31:23.452Z,5.83
2016-04-24T06:32:23.439Z,5.76
2016-04-24T06:33:23.411Z,5.86
2016-04-24T06:34:23.397Z,5.94
2016-04-24T06:35:23.369Z,6.05
2016-04-24T06:36:23.340Z,5.99
2016-04-24T06:37:23.296Z,6.05
2016-04-24T06:38:23.283Z,6.09
2016-04-24T06:39:23.942Z,6.12
2016-04-24T06:40:23.226Z,6.24
2016-04-24T06:41:23.197Z,6.28
2016-04-24T06:42:23.184Z,6.28
2016-04-24T06:43:23.172Z,6.3
2016-04-24T06:44:23.126Z,6.44
2016-04-24T06:45:23.099Z,6.51
2016-04-24T06:46:23.070Z,6.46
2016-04-24T06:47:23.057Z,6.46
2016-04-24T06:48:23.028Z,6.62
2016-04-24T06:49:23.001Z,6.66
2016-04-24T06:50:22.971Z,6.7
2016-04-24T06:51:22.959Z,6.67
2016-04-24T06:52:22.945Z,6.74
2016-04-24T06:53:25.058Z,6.66
2016-04-24T06:54:23.482Z,6.72
2016-04-24T06:55:22.860Z,6.64
2016-04-24T06:56:22.831Z,6.54
2016-04-24T06:57:22.803Z,6.46
2016-04-24T06:58:22.789Z,6.59
2016-04-24T06:59:22.762Z,6.51
2016-04-24T07:00:22.733Z,6.51
2016-04-24T07:01:22.720Z,6.48
2016-04-24T07:02:22.691Z,6.49
2016-04-24T07:03:22.663Z,6.45
2016-04-24T07:04:22.649Z,6.51
2016-04-24T07:05:22.605Z,6.45
2016-04-24T07:06:22.592Z,6.56
2016-04-24T07:07:22.564Z,6.46
2016-04-24T07:08:23.566Z,6.48
2016-04-24T07:09:23.163Z,6.52
2016-04-24T07:10:22.478Z,6.59
2016-04-24T07:11:22.466Z,6.59
2016-04-24T07:12:22.437Z,6.72
2016-04-24T07:13:22.408Z,6.63
2016-04-24T07:14:22.380Z,6.59
2016-04-24T07:15:22.351Z,6.64
2016-04-24T07:16:22.338Z,6.67
2016-04-24T07:17:22.310Z,6.63
2016-04-24T07:18:22.296Z,6.54
2016-04-24T07:19:22.252Z,6.54
2016-04-24T07:20:22.239Z,6.45
2016-04-24T07:21:22.212Z,6.49
2016-04-24T07:22:22.183Z,6.49
2016-04-24T07:23:22.154Z,6.49
2016-04-24T07:24:23.156Z,6.42
2016-04-24T07:25:22.112Z,6.42
2016-04-24T07:26:22.099Z,6.49
2016-04-24T07:27:22.056Z,6.49
2016-04-24T07:28:22.043Z,6.45
2016-04-24T07:29:22.014Z,6.49
2016-04-24T07:30:21.985Z,6.67
2016-04-24T07:31:21.957Z,6.66
2016-04-24T07:32:21.928Z,6.67
2016-04-24T07:33:21.900Z,6.78
2016-04-24T07:34:21.887Z,6.79
2016-04-24T07:35:21.124Z,6.88
2016-04-24T07:36:21.830Z,6.95
2016-04-24T07:37:21.800Z,6.97
2016-04-24T07:38:21.803Z,6.92
2016-04-24T07:39:21.760Z,6.93
2016-04-24T07:40:21.731Z,6.93
2016-04-24T07:41:21.702Z,6.92
2016-04-24T07:42:21.674Z,6.92
2016-04-24T07:43:21.660Z,6.92
2016-04-24T07:44:21.632Z,6.88
2016-04-24T07:45:21.604Z,7.1
2016-04-24T07:46:21.607Z,7.17
2016-04-24T07:47:21.562Z,7.1
2016-04-24T07:48:21.534Z,7.21
2016-04-24T07:49:21.504Z,7.4
2016-04-24T07:50:21.493Z,7.5
2016-04-24T07:51:21.463Z,7.48
2016-04-24T07:52:21.451Z,7.58
2016-04-24T07:53:21.437Z,7.58
2016-04-24T07:54:22.221Z,7.61
2016-04-24T07:55:21.380Z,7.67
2016-04-24T07:56:21.352Z,7.66
2016-04-24T07:57:21.324Z,7.61
2016-04-24T07:58:21.311Z,7.76
2016-04-24T07:59:21.281Z,7.94
2016-04-24T08:00:21.269Z,7.98
2016-04-24T08:01:21.240Z,7.95
2016-04-24T08:02:21.211Z,7.95
2016-04-24T08:03:21.200Z,8.09
2016-04-24T08:04:21.170Z,8.26
2016-04-24T08:05:21.158Z,8.31
2016-04-24T08:06:21.128Z,8.41
2016-04-24T08:07:21.116Z,8.58
2016-04-24T08:08:21.088Z,8.7
2016-04-24T08:09:21.075Z,8.94
2016-04-24T08:10:21.046Z,8.84
2016-04-24T08:11:21.033Z,8.85
2016-04-24T08:12:21.019Z,8.91
2016-04-24T08:13:20.991Z,8.85
2016-04-24T08:14:20.979Z,8.89
2016-04-24T08:15:20.950Z,8.99
2016-04-24T08:16:20.952Z,9
2016-04-24T08:17:20.205Z,9.06
2016-04-24T08:18:20.895Z,8.89
2016-04-24T08:19:20.883Z,9.04
2016-04-24T08:20:20.854Z,8.85
2016-04-24T08:21:20.841Z,8.82
2016-04-24T08:22:20.813Z,8.95
2016-04-24T08:23:20.799Z,8.85
2016-04-24T08:24:20.786Z,8.73
2016-04-24T08:25:20.759Z,8.6
2016-04-24T08:26:20.792Z,8.52
2016-04-24T08:27:20.717Z,8.33
2016-04-24T08:28:20.687Z,8.26
2016-04-24T08:29:20.675Z,8.36
2016-04-24T08:30:20.647Z,8.31
2016-04-24T08:31:20.618Z,8.34
2016-04-24T08:32:20.606Z,8.36
2016-04-24T08:33:20.576Z,8.36
2016-04-24T08:34:20.564Z,8.31
2016-04-24T08:35:20.535Z,8.41
2016-04-24T08:36:20.522Z,8.55
2016-04-24T08:37:20.494Z,8.67
2016-04-24T08:38:20.480Z,8.79
2016-04-24T08:39:20.702Z,9.04
2016-04-24T08:40:20.439Z,9.04
2016-04-24T08:41:20.442Z,9.29
2016-04-24T08:42:20.413Z,9.43
2016-04-24T08:43:20.385Z,9.66
2016-04-24T08:44:20.356Z,9.66
2016-04-24T08:45:20.343Z,9.72
2016-04-24T08:46:20.346Z,9.72
2016-04-24T08:47:20.318Z,9.48
2016-04-24T08:48:20.288Z,9.51
2016-04-24T08:49:20.276Z,9.41
2016-04-24T08:50:20.262Z,9.39
2016-04-24T08:51:21.672Z,9.23
2016-04-24T08:52:20.222Z,9.21
2016-04-24T08:53:20.209Z,9.13
2016-04-24T08:54:21.164Z,9.1
2016-04-24T08:55:20.167Z,9.1
2016-04-24T08:56:20.138Z,8.91
2016-04-24T08:57:20.140Z,9.02
2016-04-24T08:58:20.097Z,9.13
2016-04-24T08:59:20.068Z,9.13
2016-04-24T09:00:20.056Z,9.19
2016-04-24T09:01:20.042Z,9.29
2016-04-24T09:02:20.014Z,9.28
2016-04-24T09:03:20.001Z,9.39
2016-04-24T09:04:19.972Z,9.47
2016-04-24T09:05:19.959Z,9.46
2016-04-24T09:06:19.962Z,9.66
2016-04-24T09:07:19.917Z,9.79
2016-04-24T09:08:19.905Z,9.82
2016-04-24T09:09:19.892Z,9.76
2016-04-24T09:10:19.880Z,9.59
2016-04-24T09:11:19.742Z,9.61
2016-04-24T09:12:19.838Z,9.61
2016-04-24T09:13:20.075Z,9.59
2016-04-24T09:14:19.811Z,9.54
2016-04-24T09:15:19.783Z,9.66
2016-04-24T09:16:19.771Z,9.72
2016-04-24T09:17:19.023Z,9.74
2016-04-24T09:18:19.729Z,9.86
2016-04-24T09:19:19.716Z,9.89
2016-04-24T09:20:19.782Z,9.94
2016-04-24T09:21:23.424Z,10.05
2016-04-24T09:22:19.662Z,10.12
2016-04-24T09:23:19.648Z,10.33
2016-04-24T09:24:19.635Z,10.19
2016-04-24T09:25:19.607Z,10.33
2016-04-24T09:26:19.579Z,10.26
2016-04-24T09:27:19.565Z,10.28
2016-04-24T09:28:19.553Z,10.09
2016-04-24T09:29:19.540Z,9.99
2016-04-24T09:30:19.448Z,9.77
2016-04-24T09:31:19.498Z,9.65
2016-04-24T09:32:19.469Z,9.58
2016-04-24T09:33:19.457Z,9.58
2016-04-24T09:34:19.428Z,9.48
2016-04-24T09:35:19.415Z,9.39
2016-04-24T09:36:19.387Z,9.37
2016-04-24T09:37:19.420Z,9.23
2016-04-24T09:38:19.345Z,9.19
2016-04-24T09:39:19.347Z,9.23
2016-04-24T09:40:19.320Z,9.11
2016-04-24T09:41:19.369Z,9.23
2016-04-24T09:42:19.262Z,9.28
2016-04-24T09:43:19.250Z,9.32
2016-04-24T09:44:19.221Z,9.39
2016-04-24T09:45:19.192Z,9.44
2016-04-24T09:46:19.180Z,9.46
2016-04-24T09:47:19.151Z,9.39
2016-04-24T09:48:19.138Z,9.46
2016-04-24T09:49:19.110Z,9.46
2016-04-24T09:50:19.096Z,9.36
2016-04-24T09:51:19.068Z,9.31
2016-04-24T09:52:19.054Z,9.34
2016-04-24T09:53:19.027Z,9.43
2016-04-24T09:54:19.013Z,9.36
2016-04-24T09:55:18.985Z,9.28
2016-04-24T09:56:18.971Z,9.25
2016-04-24T09:57:18.943Z,9.32
2016-04-24T09:58:18.930Z,9.34
2016-04-24T09:59:18.901Z,9.39
2016-04-24T10:00:18.873Z,9.31
2016-04-24T10:01:18.860Z,9.36
2016-04-24T10:02:18.832Z,9.39
2016-04-24T10:03:18.818Z,9.48
2016-04-24T10:04:18.790Z,9.48
2016-04-24T10:05:18.762Z,9.39
2016-04-24T10:06:18.748Z,9.39
2016-04-24T10:07:18.720Z,9.37
2016-04-24T10:08:18.707Z,9.19
2016-04-24T10:09:18.726Z,9.08
2016-04-24T10:10:18.822Z,9.14
2016-04-24T10:11:18.637Z,9.23
2016-04-24T10:12:18.625Z,9.25
2016-04-24T10:13:18.627Z,9.39
2016-04-24T10:14:18.583Z,9.46
2016-04-24T10:15:18.555Z,9.44
2016-04-24T10:16:18.541Z,9.59
2016-04-24T10:17:18.513Z,9.66
2016-04-24T10:18:18.500Z,9.73
2016-04-24T10:19:18.486Z,9.86
2016-04-24T10:20:18.459Z,9.95
2016-04-24T10:21:18.430Z,9.89
2016-04-24T10:22:18.416Z,9.99
2016-04-24T10:23:18.497Z,9.86
2016-04-24T10:24:18.437Z,9.82
2016-04-24T10:25:18.347Z,9.82
2016-04-24T10:26:18.334Z,9.74
2016-04-24T10:27:18.305Z,9.54
2016-04-24T10:28:18.292Z,9.48
2016-04-24T10:29:18.264Z,9.55
2016-04-24T10:30:18.251Z,9.46
2016-04-24T10:31:18.254Z,9.43
2016-04-24T10:32:18.209Z,9.29
2016-04-24T10:33:18.181Z,9.26
2016-04-24T10:34:18.152Z,9.25
2016-04-24T10:35:18.140Z,9.16
2016-04-24T10:36:18.112Z,8.91
2016-04-24T10:37:18.098Z,8.92
2016-04-24T10:38:18.069Z,8.84
2016-04-24T10:39:18.056Z,8.81
2016-04-24T10:40:18.028Z,8.67
2016-04-24T10:41:17.999Z,8.53
2016-04-24T10:42:17.970Z,8.74
2016-04-24T10:43:17.958Z,8.7
2016-04-24T10:44:17.945Z,8.74
2016-04-24T10:45:17.917Z,8.76
2016-04-24T10:46:17.888Z,8.87
2016-04-24T10:47:17.858Z,9
2016-04-24T10:48:17.847Z,8.97
2016-04-24T10:49:17.817Z,9.16
2016-04-24T10:50:17.789Z,9.34
2016-04-24T10:51:17.777Z,9.32
2016-04-24T10:52:17.747Z,9.44
2016-04-24T10:53:17.735Z,9.58
2016-04-24T10:54:17.566Z,9.58
2016-04-24T10:55:17.943Z,9.55
2016-04-24T10:56:17.665Z,9.55
2016-04-24T10:57:17.636Z,9.51
2016-04-24T10:58:17.623Z,9.28
2016-04-24T10:59:17.601Z,8.95
2016-04-24T11:00:17.629Z,8.67
2016-04-24T11:01:17.642Z,8.45
2016-04-24T11:02:17.654Z,8.16
2016-04-24T11:03:17.683Z,7.79
2016-04-24T11:04:17.690Z,7.38
2016-04-24T11:05:17.677Z,6.88
2016-04-24T11:06:17.680Z,6.64
2016-04-24T11:07:17.509Z,6.35
2016-04-24T11:08:17.652Z,6.02
2016-04-24T11:09:17.731Z,5.93
2016-04-24T11:10:17.630Z,5.86
2016-04-24T11:11:17.606Z,5.71
2016-04-24T11:12:17.584Z,5.53
2016-04-24T11:13:17.560Z,5.32
2016-04-24T11:14:17.536Z,5.18
2016-04-24T11:15:17.510Z,5.04
2016-04-24T11:16:17.483Z,5.02
2016-04-24T11:17:17.472Z,4.87
2016-04-24T11:18:17.430Z,4.8
2016-04-24T11:19:17.403Z,4.82
2016-04-24T11:20:17.390Z,4.68
2016-04-24T11:21:17.362Z,4.74
2016-04-24T11:22:17.224Z,4.78
2016-04-24T11:23:17.306Z,4.67
2016-04-24T11:24:17.137Z,4.63
2016-04-24T11:25:17.249Z,4.59
2016-04-24T11:26:17.221Z,4.53
2016-04-24T11:27:17.194Z,4.55
2016-04-24T11:28:17.164Z,4.59
2016-04-24T11:29:17.137Z,4.58
2016-04-24T11:30:17.109Z,4.66
2016-04-24T11:31:17.095Z,4.78
2016-04-24T11:32:17.067Z,4.87
2016-04-24T11:33:17.053Z,5.05
2016-04-24T11:34:17.009Z,5.05
2016-04-24T11:35:16.980Z,5.12
2016-04-24T11:36:16.952Z,5.12
2016-04-24T11:37:16.924Z,5.3
2016-04-24T11:38:16.895Z,5.3
2016-04-24T11:39:17.085Z,5.39
2016-04-24T11:40:17.119Z,5.51
2016-04-24T11:41:16.824Z,5.56
2016-04-24T11:42:16.796Z,5.65
2016-04-24T11:43:16.784Z,5.72
2016-04-24T11:44:16.755Z,5.72
2016-04-24T11:45:16.726Z,5.8
2016-04-24T11:46:16.713Z,5.86
2016-04-24T11:47:16.669Z,5.94
2016-04-24T11:48:16.657Z,5.97
2016-04-24T11:49:16.643Z,6.11
2016-04-24T11:50:16.599Z,6.12
2016-04-24T11:51:16.571Z,6.08
2016-04-24T11:52:16.543Z,6.11
2016-04-24T11:53:16.529Z,6.22
2016-04-24T11:54:16.548Z,6.3
2016-04-24T11:55:16.316Z,6.31
2016-04-24T11:56:16.443Z,6.3
2016-04-24T11:57:16.415Z,6.39
2016-04-24T11:58:16.387Z,6.48
2016-04-24T11:59:16.389Z,6.51
2016-04-24T12:00:16.329Z,6.48
2016-04-24T12:01:16.316Z,6.64
2016-04-24T12:02:16.288Z,6.66
2016-04-24T12:03:16.259Z,6.69
2016-04-24T12:04:16.247Z,6.74
2016-04-24T12:05:16.202Z,6.77
2016-04-24T12:06:16.174Z,6.95
2016-04-24T12:07:15.989Z,6.92
2016-04-24T12:08:16.132Z,7.06
2016-04-24T12:09:16.103Z,7.14
2016-04-24T12:10:16.497Z,7.15
2016-04-24T12:11:16.046Z,7.25
2016-04-24T12:12:16.018Z,7.32
2016-04-24T12:13:15.989Z,7.38
2016-04-24T12:14:15.976Z,7.35
2016-04-24T12:15:15.948Z,7.43
2016-04-24T12:16:15.919Z,7.5
2016-04-24T12:17:15.891Z,7.47
2016-04-24T12:18:15.862Z,7.7
2016-04-24T12:19:15.849Z,7.8
2016-04-24T12:20:15.820Z,7.88
2016-04-24T12:21:15.792Z,7.94
2016-04-24T12:22:15.763Z,7.87
2016-04-24T12:23:15.734Z,7.77
2016-04-24T12:24:16.066Z,7.76
2016-04-24T12:25:15.553Z,7.97
2016-04-24T12:26:15.665Z,7.98
2016-04-24T12:27:15.652Z,8.03
2016-04-24T12:28:15.623Z,8.03
2016-04-24T12:29:15.595Z,8.08
2016-04-24T12:30:15.567Z,8.06
2016-04-24T12:31:15.537Z,8.15
2016-04-24T12:32:15.525Z,8.1
2016-04-24T12:33:15.497Z,8.15
2016-04-24T12:34:15.467Z,8.19
2016-04-24T12:35:15.439Z,8.33
2016-04-24T12:36:15.426Z,8.34
2016-04-24T12:37:15.397Z,8.41
2016-04-24T12:38:15.369Z,8.45
2016-04-24T12:39:15.356Z,8.45
2016-04-24T12:40:15.561Z,8.45
2016-04-24T12:41:15.299Z,8.42
2016-04-24T12:42:15.286Z,8.27
2016-04-24T12:43:15.257Z,8.06
2016-04-24T12:44:15.229Z,7.93
2016-04-24T12:45:15.200Z,8
2016-04-24T12:46:15.188Z,7.75
2016-04-24T12:47:15.160Z,7.72
2016-04-24T12:48:15.130Z,7.5
2016-04-24T12:49:15.117Z,7.48
2016-04-24T12:50:15.089Z,7.4
2016-04-24T12:51:15.060Z,7.32
2016-04-24T12:52:15.032Z,7.21
2016-04-24T12:53:15.012Z,7.15
2016-04-24T12:54:15.108Z,7.03
2016-04-24T12:55:15.221Z,6.96
2016-04-24T12:56:14.941Z,6.93
2016-04-24T12:57:14.914Z,6.79
2016-04-24T12:58:14.900Z,6.88
2016-04-24T12:59:14.872Z,6.78
2016-04-24T13:00:14.843Z,6.81
2016-04-24T13:01:14.815Z,6.88
2016-04-24T13:02:14.786Z,7
2016-04-24T13:03:14.758Z,6.99
2016-04-24T13:04:14.745Z,7.11
2016-04-24T13:05:14.716Z,7.07
2016-04-24T13:06:14.687Z,7.13
2016-04-24T13:07:14.674Z,7.14
2016-04-24T13:08:14.646Z,7.07
2016-04-24T13:09:14.617Z,7.13
2016-04-24T13:10:15.027Z,7.13
2016-04-24T13:11:14.576Z,7.06
2016-04-24T13:12:14.548Z,7.06
2016-04-24T13:13:14.519Z,7.14
2016-04-24T13:14:14.506Z,7.06
2016-04-24T13:15:14.477Z,7.1
2016-04-24T13:16:14.433Z,7.1
2016-04-24T13:17:14.420Z,7.14
2016-04-24T13:18:14.408Z,7.14
2016-04-24T13:19:14.363Z,7.25
2016-04-24T13:20:14.350Z,7.21
2016-04-24T13:21:14.322Z,7.32
2016-04-24T13:22:14.294Z,7.29